Harpers Crossroads, North Carolina
Current Conditions -  °F | °C
As of 1:15 PM on Thursday 30 Oct 2014 (Local Time) from K5W8 Reporting Station
Clear Clear  
Wind Chill: 65°   Ceiling: Unl
Heat Index: 65°   Visibility: 10mi
Dew Point: 39°   Wind: 5mph
Humidity: 40%   Direction: 30°NNE
Pressure: 30.03"   Gusts: NA
Location:  35.6078°N, 79.3636°W
Report Text: K5W8 301715Z AUTO 03004KT 10SM CLR 18/04 A3003 RMK AO2 T01810041
Loading
Personal Weather Stations






























Interactive Weather Map
Tropical Storm Tracking
New forecast layout! Learn more

10-Day Weather Forecast

Advertisements
Track Severe Weather on mobile